Time;durP1;ratioP1;P1;durP2;ratioP2;P2;SDS_P1;SDS_P2;PMS_P1;PMS_P2;Temp;Humidity;BMP_temperature;BMP_pressure;BME280_temperature;BME280_humidity;BME280_pressure;Samples;Min_cycle;Max_cycle;Signal;HPM_P1;HPM_P2
2021/07/08 00:00:38;;;;;;;4.97;4.57;;;17.30;99.90;;;;;;5044335;28;20202;-69
2021/07/08 00:03:06;;;;;;;4.90;4.60;;;17.40;99.90;;;;;;5046767;28;20198;-69
2021/07/08 00:05:38;;;;;;;4.68;4.25;;;17.50;99.90;;;;;;5046667;28;20601;-69
2021/07/08 00:08:05;;;;;;;4.63;4.22;;;17.60;99.90;;;;;;5047143;28;20230;-69
2021/07/08 00:10:37;;;;;;;4.80;4.50;;;17.60;99.90;;;;;;5047867;28;20198;-69
2021/07/08 00:13:04;;;;;;;6.25;5.10;;;17.40;99.90;;;;;;5046471;28;20244;-69
2021/07/08 00:15:33;;;;;;;4.75;4.45;;;17.30;99.90;;;;;;5046453;28;20320;-69
2021/07/08 00:18:01;;;;;;;5.10;4.45;;;17.30;99.90;;;;;;5047289;28;20202;-69
2021/07/08 00:20:30;;;;;;;4.85;4.45;;;17.40;99.90;;;;;;5046668;28;20198;-69
2021/07/08 00:22:57;;;;;;;5.65;4.20;;;17.30;99.90;;;;;;5042766;28;20208;-69
2021/07/08 00:25:27;;;;;;;5.88;5.47;;;17.30;99.90;;;;;;5044485;28;20241;-69
2021/07/08 00:27:55;;;;;;;5.05;4.63;;;17.30;99.90;;;;;;5046262;28;20225;-69
2021/07/08 00:30:23;;;;;;;4.90;4.50;;;17.30;99.90;;;;;;5046958;28;20210;-69
2021/07/08 00:32:50;;;;;;;5.97;4.95;;;17.30;99.90;;;;;;5047277;28;20229;-69
2021/07/08 00:35:17;;;;;;;5.80;5.30;;;17.30;99.90;;;;;;5047608;28;20241;-69
2021/07/08 00:37:45;;;;;;;4.95;4.65;;;17.30;99.90;;;;;;5047003;28;20197;-69
2021/07/08 00:40:14;;;;;;;5.80;5.30;;;17.30;99.90;;;;;;5046469;28;20222;-69
2021/07/08 00:42:42;;;;;;;9.43;5.13;;;17.40;99.90;;;;;;5046769;28;20214;-69
2021/07/08 00:45:11;;;;;;;4.80;4.50;;;17.50;99.90;;;;;;5045538;28;20194;-69
2021/07/08 00:47:38;;;;;;;9.05;6.05;;;17.40;99.90;;;;;;5043243;28;20229;-69
2021/07/08 00:50:07;;;;;;;6.05;5.47;;;17.30;99.90;;;;;;5045905;28;20284;-69
2021/07/08 00:52:34;;;;;;;7.15;6.50;;;17.30;99.90;;;;;;5042717;28;20209;-69
2021/07/08 00:55:02;;;;;;;5.40;5.00;;;17.20;99.90;;;;;;5045232;28;20200;-69
2021/07/08 00:57:29;;;;;;;6.25;5.78;;;17.20;99.90;;;;;;5046365;28;20636;-69
2021/07/08 00:59:56;;;;;;;6.43;6.03;;;17.10;99.90;;;;;;5045026;28;20717;-70
2021/07/08 01:02:24;;;;;;;6.03;5.53;;;17.00;99.90;;;;;;5046583;28;20271;-70
2021/07/08 01:04:51;;;;;;;5.93;5.53;;;17.00;99.90;;;;;;5045416;28;20600;-70
2021/07/08 01:07:21;;;;;;;5.38;4.97;;;17.00;99.90;;;;;;5046347;28;20229;-70
2021/07/08 01:09:48;;;;;;;6.15;5.65;;;16.90;99.90;;;;;;5044848;28;20212;-69
2021/07/08 01:12:17;;;;;;;6.35;5.80;;;17.00;99.90;;;;;;5045964;28;20226;-69
2021/07/08 01:14:44;;;;;;;6.80;6.30;;;17.00;99.90;;;;;;5045695;28;20594;-69
2021/07/08 01:17:11;;;;;;;6.57;6.07;;;17.00;99.90;;;;;;5045489;28;20201;-69
2021/07/08 01:19:42;;;;;;;5.90;5.40;;;17.00;99.90;;;;;;5045764;28;20201;-69
2021/07/08 01:22:10;;;;;;;7.00;6.07;;;17.00;99.90;;;;;;5046265;28;20213;-69
2021/07/08 01:24:37;;;;;;;9.30;5.45;;;17.00;99.90;;;;;;5044110;28;20585;-70
2021/07/08 01:27:05;;;;;;;6.30;5.80;;;17.00;99.90;;;;;;5047447;22;20226;-70
2021/07/08 01:29:33;;;;;;;6.60;6.10;;;16.90;99.90;;;;;;5032724;28;20202;-71
2021/07/08 01:32:00;;;;;;;9.35;5.05;;;16.80;99.90;;;;;;5049890;23;20673;-69
2021/07/08 01:34:27;;;;;;;5.55;5.25;;;16.70;99.90;;;;;;5059308;28;20216;-69
2021/07/08 01:36:54;;;;;;;6.70;6.10;;;16.70;99.90;;;;;;5063379;28;20282;-69
2021/07/08 01:39:22;;;;;;;7.70;7.00;;;16.60;99.90;;;;;;5059368;28;20312;-70
2021/07/08 01:41:49;;;;;;;8.07;7.35;;;16.60;99.90;;;;;;5060422;28;20651;-69
2021/07/08 01:44:16;;;;;;;8.25;7.63;;;16.60;99.90;;;;;;5065643;28;20209;-70
2021/07/08 01:46:44;;;;;;;7.85;7.18;;;16.60;99.90;;;;;;5062420;28;20197;-70
2021/07/08 01:49:11;;;;;;;8.68;7.78;;;16.60;99.90;;;;;;5059464;28;20645;-69
2021/07/08 01:51:39;;;;;;;9.93;7.82;;;16.60;99.90;;;;;;5060606;28;20567;-70
2021/07/08 01:54:09;;;;;;;8.63;7.80;;;16.60;99.90;;;;;;5066031;28;20641;-70
2021/07/08 01:56:38;;;;;;;9.55;8.25;;;16.60;99.90;;;;;;5062832;28;20380;-69
2021/07/08 01:59:05;;;;;;;8.57;7.88;;;16.60;99.90;;;;;;5064488;28;20236;-70
2021/07/08 02:01:32;;;;;;;8.57;7.70;;;16.70;99.90;;;;;;5066644;28;20207;-69
2021/07/08 02:03:59;;;;;;;8.00;7.30;;;16.80;99.90;;;;;;5065845;28;20756;-70
2021/07/08 02:06:28;;;;;;;8.00;7.30;;;16.80;99.90;;;;;;5058750;28;20205;-70
2021/07/08 02:08:55;;;;;;;8.40;7.70;;;16.70;99.90;;;;;;5062993;28;20228;-70
2021/07/08 02:11:22;;;;;;;7.80;6.70;;;16.60;99.90;;;;;;5058553;28;20193;-70
2021/07/08 02:13:51;;;;;;;7.20;6.70;;;16.60;99.90;;;;;;5063533;28;20206;-70
2021/07/08 02:16:18;;;;;;;9.63;8.73;;;16.60;99.90;;;;;;5062136;28;20212;-70
2021/07/08 02:18:46;;;;;;;8.48;7.78;;;16.60;99.90;;;;;;5065541;28;20239;-70
2021/07/08 02:21:13;;;;;;;7.78;7.18;;;16.60;99.90;;;;;;5060304;28;20202;-70
2021/07/08 02:23:40;;;;;;;8.18;7.47;;;16.60;99.90;;;;;;5066814;28;20639;-70
2021/07/08 02:26:08;;;;;;;8.10;7.38;;;16.60;99.90;;;;;;5067526;28;20197;-69
2021/07/08 02:28:36;;;;;;;8.65;7.85;;;16.50;99.90;;;;;;5066440;28;20235;-70
2021/07/08 02:31:04;;;;;;;8.38;7.57;;;16.50;99.90;;;;;;5069479;28;20205;-71
2021/07/08 02:33:33;;;;;;;10.18;9.18;;;16.40;99.90;;;;;;5069686;28;20205;-70
2021/07/08 02:36:01;;;;;;;9.00;8.20;;;16.40;99.90;;;;;;5064058;28;20298;-70
2021/07/08 02:38:28;;;;;;;8.38;7.63;;;16.40;99.90;;;;;;5038288;22;20230;-71
2021/07/08 02:40:55;;;;;;;8.70;7.68;;;16.30;99.90;;;;;;5029715;28;20199;-70
2021/07/08 02:43:22;;;;;;;8.57;7.88;;;16.40;99.90;;;;;;5054181;22;20593;-71
2021/07/08 02:45:48;;;;;;;10.65;9.65;;;16.40;99.90;;;;;;5048318;28;20220;-70
2021/07/08 02:48:18;;;;;;;11.85;10.75;;;16.40;99.90;;;;;;5049342;28;20311;-70
2021/07/08 02:50:47;;;;;;;12.80;11.00;;;16.40;99.90;;;;;;5049159;28;20300;-70
2021/07/08 02:53:15;;;;;;;11.68;10.68;;;16.40;99.90;;;;;;5042070;22;20230;-71
2021/07/08 02:55:42;;;;;;;12.68;11.48;;;16.30;99.90;;;;;;5027729;28;20313;-71
2021/07/08 02:58:09;;;;;;;13.90;12.55;;;16.30;99.90;;;;;;5028851;28;20289;-71
2021/07/08 03:00:37;;;;;;;13.02;11.88;;;16.30;99.90;;;;;;5028828;28;20686;-71
2021/07/08 03:03:04;;;;;;;12.90;11.80;;;16.30;99.90;;;;;;5045156;22;20248;-70
2021/07/08 03:05:32;;;;;;;10.10;9.40;;;16.30;99.90;;;;;;5048594;28;20684;-70
2021/07/08 03:08:00;;;;;;;11.93;10.93;;;16.30;99.90;;;;;;5048758;28;20225;-70
2021/07/08 03:10:29;;;;;;;16.52;10.20;;;16.30;99.90;;;;;;5049085;28;20201;-70
2021/07/08 03:12:57;;;;;;;9.98;9.07;;;16.30;99.90;;;;;;5049230;28;20293;-69
2021/07/08 03:15:25;;;;;;;8.73;8.02;;;16.30;99.90;;;;;;5047484;28;20206;-69
2021/07/08 03:17:54;;;;;;;10.45;9.35;;;16.40;99.90;;;;;;5048131;28;20197;-71
2021/07/08 03:20:22;;;;;;;12.05;10.98;;;16.50;99.90;;;;;;5048233;28;20209;-70
2021/07/08 03:22:52;;;;;;;11.77;10.73;;;16.50;99.90;;;;;;5045708;28;20285;-69
2021/07/08 03:25:20;;;;;;;13.10;11.80;;;16.40;99.90;;;;;;5052068;28;20252;-69
2021/07/08 03:27:47;;;;;;;13.07;11.88;;;16.30;99.90;;;;;;5059668;28;20233;-70
2021/07/08 03:30:18;;;;;;;13.30;12.10;;;16.30;99.90;;;;;;5048474;28;20670;-70
2021/07/08 03:32:45;;;;;;;10.55;9.52;;;16.30;99.90;;;;;;5047762;28;20205;-70
2021/07/08 03:35:13;;;;;;;11.68;10.65;;;16.30;99.90;;;;;;5046859;28;20205;-70
2021/07/08 03:37:40;;;;;;;12.52;9.65;;;16.30;99.90;;;;;;5044536;28;20280;-70
2021/07/08 03:40:11;;;;;;;11.13;10.10;;;16.30;99.90;;;;;;5048466;28;20205;-70
2021/07/08 03:42:38;;;;;;;10.63;9.73;;;16.30;99.90;;;;;;5051810;28;20281;-70
2021/07/08 03:45:05;;;;;;;14.75;10.50;;;16.30;99.90;;;;;;5045376;28;20300;-69
2021/07/08 03:47:32;;;;;;;10.68;9.75;;;16.40;99.90;;;;;;5045587;28;20194;-71
2021/07/08 03:49:59;;;;;;;11.90;10.80;;;16.30;99.90;;;;;;5048050;28;20292;-70
2021/07/08 03:52:26;;;;;;;11.48;10.38;;;16.40;99.90;;;;;;5047508;28;20317;-71
2021/07/08 03:54:53;;;;;;;10.93;9.93;;;16.40;99.90;;;;;;5047557;28;20216;-70
2021/07/08 03:57:22;;;;;;;12.52;10.43;;;16.50;99.90;;;;;;5046968;28;20239;-70
2021/07/08 03:59:48;;;;;;;14.75;11.00;;;16.50;99.90;;;;;;5047475;28;20304;-70
2021/07/08 04:02:15;;;;;;;13.07;10.45;;;16.50;99.90;;;;;;5048895;28;20292;-70
2021/07/08 04:04:42;;;;;;;16.52;11.80;;;16.50;99.90;;;;;;5050805;28;20207;-70
2021/07/08 04:07:09;;;;;;;12.93;11.82;;;16.40;99.90;;;;;;5047619;28;20248;-70
2021/07/08 04:09:36;;;;;;;11.77;10.65;;;16.50;99.90;;;;;;5047025;28;20252;-70
2021/07/08 04:12:03;;;;;;;12.38;11.20;;;16.50;99.90;;;;;;5047082;28;20640;-70
2021/07/08 04:14:31;;;;;;;13.02;11.82;;;16.50;99.90;;;;;;5047588;28;20289;-71
2021/07/08 04:16:58;;;;;;;12.18;10.98;;;16.40;99.90;;;;;;5047348;28;20209;-70
2021/07/08 04:19:25;;;;;;;13.35;11.35;;;16.40;99.90;;;;;;5047123;28;20204;-71
2021/07/08 04:21:52;;;;;;;13.00;11.75;;;16.40;99.90;;;;;;5047577;28;20202;-70
2021/07/08 04:24:19;;;;;;;12.77;11.50;;;16.40;99.90;;;;;;5048183;28;20233;-70
2021/07/08 04:26:46;;;;;;;12.25;11.15;;;16.40;99.90;;;;;;5050366;28;20249;-70
2021/07/08 04:29:13;;;;;;;13.25;12.00;;;16.40;99.90;;;;;;5047744;28;20328;-70
2021/07/08 04:31:41;;;;;;;11.73;10.63;;;16.40;99.90;;;;;;5044307;28;20221;-70
2021/07/08 04:34:08;;;;;;;12.27;11.18;;;16.40;99.90;;;;;;5047314;28;20204;-70
2021/07/08 04:36:35;;;;;;;11.95;10.75;;;16.50;99.90;;;;;;5043594;28;20229;-70
2021/07/08 04:39:02;;;;;;;11.65;10.55;;;16.50;99.90;;;;;;5044100;28;20198;-71
2021/07/08 04:41:28;;;;;;;11.70;10.70;;;16.50;99.90;;;;;;5048172;28;20212;-70
2021/07/08 04:43:58;;;;;;;11.15;10.15;;;16.60;99.90;;;;;;5046440;28;20293;-70
2021/07/08 04:46:26;;;;;;;11.70;10.60;;;16.70;99.90;;;;;;5046223;28;20628;-70
2021/07/08 04:48:55;;;;;;;11.32;10.32;;;16.90;99.90;;;;;;5045727;28;20312;-70
2021/07/08 04:51:22;;;;;;;11.30;10.00;;;17.00;99.90;;;;;;5046123;28;20748;-70
2021/07/08 04:53:48;;;;;;;11.10;10.07;;;17.10;99.90;;;;;;5045903;28;20670;-70
2021/07/08 04:56:16;;;;;;;11.50;10.00;;;17.10;99.90;;;;;;5045824;28;20204;-70
2021/07/08 04:58:43;;;;;;;11.48;8.65;;;17.60;99.90;;;;;;5046228;28;20629;-70
2021/07/08 05:01:20;;;;;;;10.50;9.55;;;17.60;99.90;;;;;;5046200;28;20200;-70
2021/07/08 05:03:47;;;;;;;8.65;7.78;;;17.90;99.90;;;;;;5045767;28;20205;-70
2021/07/08 05:06:15;;;;;;;12.13;8.35;;;18.10;99.90;;;;;;5045524;28;20208;-70
2021/07/08 05:08:42;;;;;;;8.57;7.70;;;18.00;99.90;;;;;;5046073;28;20324;-70
2021/07/08 05:11:09;;;;;;;9.00;8.20;;;17.70;99.90;;;;;;5052332;28;20617;-70
2021/07/08 05:13:36;;;;;;;10.55;9.55;;;17.50;99.90;;;;;;5046488;28;20285;-70
2021/07/08 05:16:02;;;;;;;9.45;8.63;;;17.30;99.90;;;;;;5045068;28;20237;-70
2021/07/08 05:18:29;;;;;;;9.60;8.20;;;17.10;99.90;;;;;;5046178;28;20198;-69
2021/07/08 05:20:56;;;;;;;9.82;8.93;;;17.00;99.90;;;;;;5047507;28;20202;-70
2021/07/08 05:23:27;;;;;;;9.80;8.80;;;17.10;99.90;;;;;;5047705;28;20212;-70
2021/07/08 05:25:54;;;;;;;9.60;8.70;;;17.20;99.90;;;;;;5052254;28;20212;-69
2021/07/08 05:28:21;;;;;;;8.95;8.15;;;17.20;99.90;;;;;;5046287;28;20671;-69
2021/07/08 05:30:48;;;;;;;10.40;9.32;;;17.20;99.90;;;;;;5046765;28;20210;-70
2021/07/08 05:33:15;;;;;;;8.27;7.68;;;17.30;99.90;;;;;;5046503;28;20724;-70
2021/07/08 05:35:41;;;;;;;8.70;8.00;;;17.50;99.90;;;;;;5044718;28;20298;-69
2021/07/08 05:38:08;;;;;;;8.17;7.53;;;17.60;99.90;;;;;;5042977;28;20305;-69
2021/07/08 05:40:37;;;;;;;9.15;8.38;;;17.70;99.90;;;;;;5046244;28;20632;-70
2021/07/08 05:43:05;;;;;;;8.63;7.83;;;17.90;99.90;;;;;;5046945;28;20292;-70
2021/07/08 05:45:33;;;;;;;10.60;7.83;;;17.80;99.90;;;;;;5044805;28;20714;-70
2021/07/08 05:47:59;;;;;;;8.50;7.70;;;17.90;99.90;;;;;;5047606;28;21011;-70
2021/07/08 05:50:27;;;;;;;8.13;7.50;;;17.90;99.90;;;;;;5050471;28;20684;-70
2021/07/08 05:52:55;;;;;;;8.60;7.90;;;17.90;99.90;;;;;;5057688;22;20715;-71
2021/07/08 05:55:21;;;;;;;8.80;7.60;;;17.90;99.90;;;;;;5050170;28;20632;-71
2021/07/08 05:57:50;;;;;;;8.80;7.93;;;18.20;99.90;;;;;;5049827;28;20710;-70
2021/07/08 06:00:18;;;;;;;9.47;8.37;;;18.00;99.90;;;;;;5047649;28;21050;-71
2021/07/08 06:02:45;;;;;;;9.80;9.10;;;18.00;99.90;;;;;;5065763;22;21223;-69
2021/07/08 06:05:13;;;;;;;10.50;9.33;;;17.90;99.90;;;;;;5069836;28;20625;-69
2021/07/08 06:07:43;;;;;;;10.45;9.35;;;17.90;99.90;;;;;;5069972;28;20620;-70
2021/07/08 06:10:11;;;;;;;9.33;8.53;;;17.90;99.90;;;;;;5068893;28;20319;-69
2021/07/08 06:12:38;;;;;;;8.43;7.63;;;17.80;99.90;;;;;;5068264;28;21195;-70
2021/07/08 06:15:08;;;;;;;8.50;7.80;;;17.80;99.90;;;;;;5067563;28;21000;-70
2021/07/08 06:17:35;;;;;;;9.20;8.32;;;17.90;99.90;;;;;;5068693;28;20629;-70
2021/07/08 06:20:02;;;;;;;8.90;8.10;;;17.90;99.90;;;;;;5069048;28;20213;-70
2021/07/08 06:22:28;;;;;;;8.27;7.57;;;18.00;99.90;;;;;;5068183;28;20693;-69
2021/07/08 06:24:55;;;;;;;8.10;7.03;;;18.10;99.90;;;;;;5067744;28;20619;-69
2021/07/08 06:27:22;;;;;;;7.30;6.67;;;18.30;99.90;;;;;;5068923;28;20714;-69
2021/07/08 06:29:49;;;;;;;6.77;6.27;;;18.50;99.90;;;;;;5069154;28;20670;-68
2021/07/08 06:32:18;;;;;;;7.73;7.13;;;18.60;99.90;;;;;;5069399;28;20661;-69
2021/07/08 06:34:45;;;;;;;7.50;6.90;;;19.00;99.90;;;;;;5067688;28;21293;-69
2021/07/08 06:37:12;;;;;;;7.10;6.50;;;19.30;99.90;;;;;;5068432;28;20701;-69
2021/07/08 06:39:39;;;;;;;7.50;6.90;;;19.40;99.90;;;;;;5067749;28;20719;-69
2021/07/08 06:42:06;;;;;;;9.30;6.57;;;19.40;99.90;;;;;;5068294;28;20654;-70
2021/07/08 06:44:33;;;;;;;7.00;6.40;;;19.30;99.90;;;;;;5066985;28;20692;-69
2021/07/08 06:47:02;;;;;;;7.00;6.50;;;19.20;99.90;;;;;;5069010;28;20726;-69
2021/07/08 06:49:30;;;;;;;7.47;6.87;;;19.10;99.90;;;;;;5065587;28;20674;-69
2021/07/08 06:51:57;;;;;;;7.50;6.90;;;19.00;99.90;;;;;;5064815;28;20622;-70
2021/07/08 06:54:24;;;;;;;7.83;7.13;;;18.90;99.90;;;;;;5061064;28;21068;-69
2021/07/08 06:56:54;;;;;;;8.50;7.70;;;18.80;99.90;;;;;;5067172;28;20637;-70
2021/07/08 06:59:20;;;;;;;8.23;7.43;;;18.70;99.90;;;;;;5065889;28;20630;-70
2021/07/08 07:01:48;;;;;;;11.40;8.50;;;18.60;99.90;;;;;;5066892;28;20741;-69
2021/07/08 07:04:14;;;;;;;9.67;8.80;;;18.50;99.90;;;;;;5067209;28;20712;-69
2021/07/08 07:06:45;;;;;;;8.90;8.10;;;18.60;99.90;;;;;;5065717;28;20840;-69
2021/07/08 07:09:12;;;;;;;9.83;9.03;;;18.60;99.90;;;;;;5067228;28;20765;-69
2021/07/08 07:11:39;;;;;;;9.00;8.10;;;18.50;99.90;;;;;;5065020;28;20712;-70
2021/07/08 07:14:06;;;;;;;8.80;8.10;;;18.50;99.90;;;;;;5067172;28;20665;-70
2021/07/08 07:16:34;;;;;;;10.13;9.23;;;18.50;99.90;;;;;;5064020;28;20667;-69
2021/07/08 07:19:01;;;;;;;9.77;8.87;;;18.50;99.90;;;;;;5054995;22;20686;-71
2021/07/08 07:21:29;;;;;;;10.03;9.03;;;18.50;99.90;;;;;;5046437;28;20634;-71
2021/07/08 07:24:01;;;;;;;11.00;8.37;;;18.30;99.90;;;;;;5047524;28;21354;-71
2021/07/08 07:26:30;;;;;;;9.03;8.23;;;18.50;99.90;;;;;;5041664;28;20667;-71
2021/07/08 07:29:08;;;;;;;8.57;7.77;;;18.60;99.90;;;;;;5071400;22;20678;-69
2021/07/08 07:31:35;;;;;;;8.73;7.70;;;18.60;99.90;;;;;;5065185;28;20655;-69
2021/07/08 07:34:02;;;;;;;8.00;7.27;;;18.60;99.90;;;;;;5064160;28;21038;-69
2021/07/08 07:36:29;;;;;;;10.83;8.70;;;18.70;99.90;;;;;;5064422;28;20615;-70
2021/07/08 07:38:57;;;;;;;9.53;8.43;;;18.80;99.90;;;;;;5065325;28;20681;-69
2021/07/08 07:41:24;;;;;;;10.40;8.83;;;18.60;99.90;;;;;;5064238;28;20726;-69
2021/07/08 07:43:51;;;;;;;9.40;8.60;;;18.60;99.90;;;;;;5065994;28;20685;-69
2021/07/08 07:46:18;;;;;;;9.33;8.53;;;18.60;99.90;;;;;;5061278;28;20666;-69
2021/07/08 07:48:45;;;;;;;10.57;9.57;;;18.60;99.90;;;;;;5063727;28;20739;-69
2021/07/08 07:51:15;;;;;;;9.00;8.20;;;18.70;99.90;;;;;;5066453;28;20697;-69
2021/07/08 07:53:42;;;;;;;9.57;8.67;;;18.80;99.90;;;;;;5064583;28;20755;-70
2021/07/08 07:56:10;;;;;;;9.77;8.93;;;18.80;99.90;;;;;;5065860;28;20635;-69
2021/07/08 07:58:37;;;;;;;8.77;8.03;;;19.00;99.90;;;;;;5066133;28;21012;-69
2021/07/08 08:01:04;;;;;;;9.87;8.97;;;19.00;99.90;;;;;;5065937;28;20797;-69
2021/07/08 08:03:31;;;;;;;9.50;8.70;;;19.00;99.90;;;;;;5066002;28;21371;-69
2021/07/08 08:08:39;;;;;;;10.33;9.43;;;19.10;99.90;;;;;;5065738;28;21247;-69
2021/07/08 08:11:08;;;;;;;10.00;9.03;;;19.10;99.90;;;;;;5065542;28;20687;-70
2021/07/08 08:13:36;;;;;;;9.20;8.50;;;19.20;99.90;;;;;;5065983;28;20627;-69
2021/07/08 08:16:06;;;;;;;9.63;8.73;;;19.20;99.90;;;;;;5063015;28;20639;-69
2021/07/08 08:18:34;;;;;;;10.20;9.37;;;19.20;99.90;;;;;;5064981;28;20734;-70
2021/07/08 08:21:02;;;;;;;9.53;8.73;;;19.30;99.90;;;;;;5064596;28;20655;-69
2021/07/08 08:23:29;;;;;;;10.07;9.10;;;19.10;99.90;;;;;;5065751;28;20624;-69
2021/07/08 08:25:56;;;;;;;10.07;9.17;;;19.00;99.90;;;;;;5065259;28;20639;-69
2021/07/08 08:28:23;;;;;;;9.53;8.73;;;19.20;99.90;;;;;;5065821;28;20643;-69
2021/07/08 08:30:53;;;;;;;11.60;8.60;;;19.30;99.90;;;;;;5065571;28;20707;-69
2021/07/08 08:33:20;;;;;;;9.53;8.70;;;19.50;99.90;;;;;;5065757;28;20639;-69
2021/07/08 08:35:49;;;;;;;9.87;8.90;;;19.80;99.90;;;;;;5064831;28;20649;-70
2021/07/08 08:38:16;;;;;;;10.30;8.80;;;20.30;99.90;;;;;;5065823;28;20744;-69
2021/07/08 08:40:43;;;;;;;9.77;8.97;;;20.70;99.90;;;;;;5066286;28;21184;-69
2021/07/08 08:43:10;;;;;;;7.97;7.37;;;21.20;99.90;;;;;;5065644;28;21084;-69
2021/07/08 08:45:38;;;;;;;9.10;8.30;;;21.70;99.90;;;;;;5066070;28;20631;-69
2021/07/08 08:48:09;;;;;;;8.90;7.30;;;21.80;99.90;;;;;;5064852;28;20655;-69
2021/07/08 08:50:38;;;;;;;8.23;7.47;;;22.20;99.90;;;;;;5065493;28;21071;-69
2021/07/08 08:53:06;;;;;;;8.00;7.20;;;22.40;99.90;;;;;;5065345;28;20804;-69
2021/07/08 08:55:35;;;;;;;7.40;5.90;;;22.10;99.90;;;;;;5064667;28;20623;-69
2021/07/08 08:58:02;;;;;;;8.30;7.60;;;22.20;99.90;;;;;;5065372;28;20688;-69
2021/07/08 09:00:47;;;;;;;7.53;6.70;;;22.30;99.90;;;;;;5065723;28;20989;-69
2021/07/08 09:03:17;;;;;;;7.30;6.70;;;22.60;99.90;;;;;;5059360;28;20688;-69
2021/07/08 09:05:47;;;;;;;7.00;6.50;;;22.90;99.90;;;;;;5064101;28;20623;-69
2021/07/08 09:08:21;;;;;;;8.10;7.50;;;22.90;99.90;;;;;;5064970;28;20673;-69
2021/07/08 09:11:08;;;;;;;6.60;6.10;;;23.00;99.90;;;;;;5066020;28;20679;-69
2021/07/08 09:14:01;;;;;;;7.60;6.97;;;23.20;99.90;;;;;;5063946;28;20718;-69
2021/07/08 09:16:31;;;;;;;7.43;6.67;;;23.00;99.90;;;;;;5064850;28;21039;-69
2021/07/08 09:19:05;;;;;;;6.83;6.23;;;23.20;99.90;;;;;;5065301;28;20700;-69
2021/07/08 09:21:34;;;;;;;6.57;5.97;;;23.30;99.90;;;;;;5065379;28;20666;-70
2021/07/08 09:24:07;;;;;;;7.67;7.17;;;23.20;99.90;;;;;;5065744;28;20635;-69
2021/07/08 09:26:34;;;;;;;6.97;6.47;;;23.00;99.90;;;;;;5064312;28;21379;-69
2021/07/08 09:29:06;;;;;;;7.13;6.63;;;23.00;99.90;;;;;;5065348;28;20698;-69
2021/07/08 09:31:34;;;;;;;6.17;5.77;;;23.00;99.90;;;;;;5057351;28;20657;-69
2021/07/08 09:34:17;;;;;;;6.70;6.20;;;23.40;99.90;;;;;;5065091;28;20636;-69
2021/07/08 09:36:45;;;;;;;6.90;6.20;;;23.30;99.90;;;;;;5062279;28;20688;-69
2021/07/08 09:39:13;;;;;;;6.70;6.10;;;23.20;99.90;;;;;;5060697;28;20667;-69
2021/07/08 09:41:51;;;;;;;6.27;5.77;;;23.00;99.90;;;;;;5057707;28;20634;-69
2021/07/08 09:44:26;;;;;;;7.97;5.60;;;22.80;99.90;;;;;;5065357;28;20633;-69
2021/07/08 09:46:57;;;;;;;6.57;6.07;;;22.60;99.90;;;;;;5060754;28;20732;-70
2021/07/08 09:49:26;;;;;;;6.67;6.07;;;22.60;99.90;;;;;;5060704;28;20646;-69
2021/07/08 09:51:54;;;;;;;6.03;5.53;;;22.40;99.90;;;;;;5057347;28;20746;-70
2021/07/08 09:57:32;;;;;;;5.17;4.67;;;22.60;99.90;;;;;;5058130;28;20643;-69
2021/07/08 09:59:59;;;;;;;5.00;4.70;;;22.60;99.90;;;;;;5062367;28;20684;-69
2021/07/08 10:02:30;;;;;;;4.40;4.10;;;22.60;99.90;;;;;;5063573;28;20646;-69
2021/07/08 10:04:59;;;;;;;4.83;4.53;;;22.60;99.90;;;;;;5064088;28;20630;-69
2021/07/08 10:07:27;;;;;;;5.00;4.60;;;22.70;99.90;;;;;;5062719;28;20630;-69
2021/07/08 10:09:54;;;;;;;4.10;3.80;;;22.80;99.90;;;;;;5064698;28;20669;-69
2021/07/08 10:12:21;;;;;;;4.53;4.20;;;23.00;99.90;;;;;;5064876;28;20624;-69
2021/07/08 10:14:49;;;;;;;5.47;5.03;;;23.00;99.90;;;;;;5064437;28;20616;-69
2021/07/08 10:17:16;;;;;;;6.20;5.20;;;22.90;99.90;;;;;;5061609;28;20987;-69
2021/07/08 10:19:45;;;;;;;5.80;4.67;;;23.00;99.90;;;;;;5062780;28;20638;-69
2021/07/08 10:22:13;;;;;;;4.30;4.00;;;23.10;99.90;;;;;;5064523;28;20640;-69
2021/07/08 10:24:40;;;;;;;5.27;4.97;;;23.10;99.90;;;;;;5061792;28;20655;-69
2021/07/08 10:27:08;;;;;;;5.03;4.60;;;23.40;99.90;;;;;;5065548;28;20638;-69
2021/07/08 10:29:38;;;;;;;4.30;4.10;;;23.60;99.90;;;;;;5063690;28;20722;-69
2021/07/08 10:32:07;;;;;;;4.27;3.97;;;23.90;99.70;;;;;;5066916;28;20608;-69
2021/07/08 10:34:43;;;;;;;4.07;3.77;;;24.00;98.70;;;;;;5062105;28;20643;-69
2021/07/08 10:37:13;;;;;;;3.93;3.73;;;23.90;98.50;;;;;;5068543;28;21226;-69
2021/07/08 10:39:42;;;;;;;4.60;3.70;;;23.60;99.90;;;;;;5068473;28;20644;-69
2021/07/08 10:42:11;;;;;;;4.40;4.00;;;23.70;99.70;;;;;;5063340;28;20631;-69
2021/07/08 10:44:49;;;;;;;4.00;3.50;;;23.90;98.70;;;;;;5065495;28;20627;-69
2021/07/08 10:47:40;;;;;;;3.40;3.20;;;23.80;99.90;;;;;;5061154;28;20629;-69
2021/07/08 10:50:35;;;;;;;5.07;4.67;;;23.80;99.10;;;;;;5063284;28;20683;-69
2021/07/08 10:53:19;;;;;;;4.63;4.33;;;24.10;97.90;;;;;;5064386;28;20628;-70
2021/07/08 10:55:49;;;;;;;4.60;4.20;;;24.00;98.60;;;;;;5067203;28;20718;-71
2021/07/08 10:58:40;;;;;;;4.90;4.50;;;23.60;99.20;;;;;;5068358;28;20650;-70
2021/07/08 11:01:09;;;;;;;4.13;3.83;;;23.40;99.70;;;;;;5067383;28;20614;-70
2021/07/08 11:03:53;;;;;;;4.20;3.80;;;23.60;98.70;;;;;;5068326;28;20712;-71
2021/07/08 11:06:23;;;;;;;5.57;3.60;;;23.70;98.30;;;;;;5067269;28;20738;-71
2021/07/08 11:08:59;;;;;;;3.13;2.93;;;23.40;98.90;;;;;;5066408;28;20635;-71
2021/07/08 11:12:05;;;;;;;2.97;2.77;;;23.20;98.90;;;;;;5063050;28;20709;-71
2021/07/08 11:14:39;;;;;;;3.57;3.20;;;23.20;98.10;;;;;;5051741;22;20686;-72
2021/07/08 11:19:45;;;;;;;3.17;2.97;;;22.90;99.90;;;;;;5051921;23;20679;-71
2021/07/08 11:22:24;;;;;;;2.73;2.53;;;22.90;98.90;;;;;;5047446;28;21165;-72
2021/07/08 11:24:52;;;;;;;3.47;3.20;;;22.90;99.70;;;;;;5047128;28;20634;-71
2021/07/08 11:27:33;;;;;;;3.97;3.50;;;22.90;99.90;;;;;;5046491;28;20727;-71
2021/07/08 11:30:03;;;;;;;3.20;3.00;;;22.70;99.90;;;;;;5043537;28;20970;-71
2021/07/08 11:32:36;;;;;;;5.77;3.47;;;22.70;99.90;;;;;;5037678;28;21072;-72
2021/07/08 11:35:06;;;;;;;3.60;3.30;;;22.50;99.90;;;;;;5040315;28;21217;-70
2021/07/08 11:37:39;;;;;;;3.77;3.53;;;22.60;99.90;;;;;;5040324;28;20644;-71
2021/07/08 11:40:09;;;;;;;4.00;3.70;;;22.70;99.90;;;;;;5042410;28;21047;-70
2021/07/08 11:42:41;;;;;;;3.60;3.40;;;22.70;99.90;;;;;;5044146;28;21013;-70
2021/07/08 11:45:12;;;;;;;3.60;3.40;;;22.80;99.90;;;;;;5046758;28;20655;-69
2021/07/08 11:47:41;;;;;;;3.03;2.83;;;22.70;99.90;;;;;;5046556;28;20644;-71
2021/07/08 11:50:20;;;;;;;3.77;3.47;;;22.90;99.30;;;;;;5047326;28;20654;-72
2021/07/08 11:53:05;;;;;;;5.07;3.43;;;23.00;99.20;;;;;;5046743;28;21075;-71
2021/07/08 11:55:33;;;;;;;4.40;2.87;;;23.10;99.00;;;;;;5043580;28;20981;-71
2021/07/08 11:58:03;;;;;;;3.47;3.17;;;23.10;98.90;;;;;;5045670;28;20698;-71
2021/07/08 12:00:39;;;;;;;2.97;2.77;;;23.20;98.50;;;;;;5046762;28;20628;-71
2021/07/08 12:03:23;;;;;;;3.20;3.00;;;23.40;99.80;;;;;;5044186;28;20664;-71
2021/07/08 12:05:51;;;;;;;3.30;3.00;;;23.70;97.80;;;;;;5045399;28;20693;-71
2021/07/08 12:08:23;;;;;;;3.70;3.20;;;23.80;96.90;;;;;;5046903;28;20727;-71
2021/07/08 12:10:55;;;;;;;3.80;3.60;;;23.70;97.80;;;;;;5044494;28;20675;-71
2021/07/08 12:13:26;;;;;;;3.60;3.37;;;23.20;99.30;;;;;;5046963;28;20625;-71
2021/07/08 12:15:53;;;;;;;3.30;3.00;;;23.40;99.30;;;;;;5046006;28;21020;-71
2021/07/08 12:18:19;;;;;;;3.57;3.27;;;23.50;98.70;;;;;;5046496;28;20750;-71
2021/07/08 12:20:48;;;;;;;3.00;2.80;;;23.10;98.70;;;;;;5045976;28;20644;-72
2021/07/08 12:23:16;;;;;;;2.07;1.80;;;23.40;98.60;;;;;;5046156;28;20733;-71
2021/07/08 12:25:43;;;;;;;2.00;1.90;;;23.50;96.10;;;;;;5042487;28;20760;-71
2021/07/08 12:28:11;;;;;;;2.20;2.10;;;23.40;96.70;;;;;;5044928;28;20643;-71
2021/07/08 12:30:39;;;;;;;3.93;2.50;;;23.30;96.00;;;;;;5044729;28;20679;-72
2021/07/08 12:33:11;;;;;;;2.30;2.20;;;23.20;96.40;;;;;;5044576;28;20667;-72
2021/07/08 12:35:46;;;;;;;2.00;1.90;;;23.10;97.10;;;;;;5046357;28;20632;-72
2021/07/08 12:38:18;;;;;;;2.30;2.20;;;22.90;97.90;;;;;;5045336;28;21004;-72
2021/07/08 12:40:46;;;;;;;3.20;2.80;;;23.00;97.70;;;;;;5045469;28;20632;-72
2021/07/08 12:43:15;;;;;;;2.60;2.50;;;22.80;97.90;;;;;;5046389;28;20631;-72
2021/07/08 12:45:44;;;;;;;3.03;2.83;;;23.30;98.20;;;;;;5036905;28;20735;-72
2021/07/08 12:48:14;;;;;;;3.20;2.97;;;23.40;98.00;;;;;;5046026;28;20632;-72
2021/07/08 12:50:43;;;;;;;3.20;3.00;;;23.40;98.10;;;;;;5044978;28;20690;-72
2021/07/08 12:53:13;;;;;;;2.90;2.70;;;23.30;98.60;;;;;;5057578;22;20714;-74
2021/07/08 12:55:47;;;;;;;3.97;3.63;;;23.50;99.90;;;;;;5065221;28;20996;-74
2021/07/08 12:58:17;;;;;;;3.03;2.83;;;23.50;99.90;;;;;;5066607;22;20683;-72
2021/07/08 13:00:46;;;;;;;4.00;3.53;;;23.70;98.20;;;;;;5044431;28;20639;-72